sensor_id;sensor_type;location;lat;lon;timestamp;pressure;altitude;pressure_sealevel;temperature;humidity
30714;BME280;17465;47.934;33.430;2023-05-09T00:01:28;57145.10;;;-140.43;47.48
30714;BME280;17465;47.934;33.430;2023-05-09T00:03:59;57145.10;;;-140.43;47.48
30714;BME280;17465;47.934;33.430;2023-05-09T00:06:30;57136.63;;;-140.43;46.60
30714;BME280;17465;47.934;33.430;2023-05-09T00:09:00;57128.16;;;-140.43;46.60
30714;BME280;17465;47.934;33.430;2023-05-09T00:11:31;57124.98;;;-140.43;45.19
30714;BME280;17465;47.934;33.430;2023-05-09T00:14:01;57124.98;;;-140.43;45.19
30714;BME280;17465;47.934;33.430;2023-05-09T00:16:32;57146.16;;;-140.43;45.60
30714;BME280;17465;47.934;33.430;2023-05-09T00:19:02;57162.04;;;-140.43;47.12
30714;BME280;17465;47.934;33.430;2023-05-09T00:21:33;57136.63;;;-140.43;45.43
30714;BME280;17465;47.934;33.430;2023-05-09T00:24:04;57147.22;;;-140.43;44.46
30714;BME280;17465;47.934;33.430;2023-05-09T00:26:34;57151.46;;;-140.43;44.33
30714;BME280;17465;47.934;33.430;2023-05-09T00:29:05;57151.46;;;-140.43;44.33
30714;BME280;17465;47.934;33.430;2023-05-09T00:31:35;57141.92;;;-140.43;45.35
30714;BME280;17465;47.934;33.430;2023-05-09T00:34:05;57141.92;;;-140.43;45.35
30714;BME280;17465;47.934;33.430;2023-05-09T00:36:36;57129.21;;;-140.43;44.35
30714;BME280;17465;47.934;33.430;2023-05-09T00:39:06;57132.39;;;-140.43;44.84
30714;BME280;17465;47.934;33.430;2023-05-09T00:41:37;57140.86;;;-140.43;45.06
30714;BME280;17465;47.934;33.430;2023-05-09T00:44:07;57154.63;;;-140.43;45.26
30714;BME280;17465;47.934;33.430;2023-05-09T00:46:38;57154.63;;;-140.43;45.26
30714;BME280;17465;47.934;33.430;2023-05-09T00:49:09;57139.80;;;-140.43;46.10
30714;BME280;17465;47.934;33.430;2023-05-09T00:51:40;57132.39;;;-140.43;45.16
30714;BME280;17465;47.934;33.430;2023-05-09T00:54:10;57144.04;;;-140.43;45.21
30714;BME280;17465;47.934;33.430;2023-05-09T00:56:41;57147.22;;;-140.43;44.38
30714;BME280;17465;47.934;33.430;2023-05-09T00:59:11;57162.04;;;-140.43;45.64
30714;BME280;17465;47.934;33.430;2023-05-09T01:01:41;57124.98;;;-140.43;46.74
30714;BME280;17465;47.934;33.430;2023-05-09T01:04:13;57155.69;;;-140.43;44.48
30714;BME280;17465;47.934;33.430;2023-05-09T01:09:58;57169.46;;;-140.43;43.71
30714;BME280;17465;47.934;33.430;2023-05-09T01:12:48;57153.57;;;-140.43;45.28
30714;BME280;17465;47.934;33.430;2023-05-09T01:15:30;57134.51;;;-140.43;46.14
30714;BME280;17465;47.934;33.430;2023-05-09T01:18:14;57144.04;;;-140.43;47.68
30714;BME280;17465;47.934;33.430;2023-05-09T01:20:46;57142.98;;;-140.43;46.02
30714;BME280;17465;47.934;33.430;2023-05-09T01:23:39;57136.63;;;-140.43;46.50
30714;BME280;17465;47.934;33.430;2023-05-09T01:32:00;57151.46;;;-140.43;47.48
30714;BME280;17465;47.934;33.430;2023-05-09T01:34:32;57151.46;;;-140.43;47.48
30714;BME280;17465;47.934;33.430;2023-05-09T01:37:04;57157.81;;;-140.43;44.54
30714;BME280;17465;47.934;33.430;2023-05-09T01:39:38;57151.46;;;-140.43;45.39
30714;BME280;17465;47.934;33.430;2023-05-09T01:42:11;57157.81;;;-140.43;46.08
30714;BME280;17465;47.934;33.430;2023-05-09T01:47:34;57141.92;;;-140.43;45.06
30714;BME280;17465;47.934;33.430;2023-05-09T01:50:06;57148.28;;;-140.43;46.70
30714;BME280;17465;47.934;33.430;2023-05-09T01:52:39;57156.75;;;-140.43;45.11
30714;BME280;17465;47.934;33.430;2023-05-09T01:55:11;57167.34;;;-140.43;45.94
30714;BME280;17465;47.934;33.430;2023-05-09T01:57:44;57148.28;;;-140.43;45.91
30714;BME280;17465;47.934;33.430;2023-05-09T02:00:15;57148.28;;;-140.43;45.91
30714;BME280;17465;47.934;33.430;2023-05-09T02:02:47;57172.63;;;-140.43;44.85
30714;BME280;17465;47.934;33.430;2023-05-09T02:05:18;57153.57;;;-140.43;46.70
30714;BME280;17465;47.934;33.430;2023-05-09T02:07:49;57153.57;;;-140.43;46.70
30714;BME280;17465;47.934;33.430;2023-05-09T02:10:20;57141.92;;;-140.43;45.67
30714;BME280;17465;47.934;33.430;2023-05-09T02:12:53;57140.86;;;-140.43;47.87
30714;BME280;17465;47.934;33.430;2023-05-09T02:15:24;57140.86;;;-140.43;47.87
30714;BME280;17465;47.934;33.430;2023-05-09T02:17:55;57155.69;;;-140.43;45.75
30714;BME280;17465;47.934;33.430;2023-05-09T02:20:25;57142.98;;;-140.43;46.34
30714;BME280;17465;47.934;33.430;2023-05-09T02:22:56;57162.04;;;-140.43;45.82
30714;BME280;17465;47.934;33.430;2023-05-09T02:25:26;57162.04;;;-140.43;45.82
30714;BME280;17465;47.934;33.430;2023-05-09T02:27:57;57151.46;;;-140.43;47.24
30714;BME280;17465;47.934;33.430;2023-05-09T02:30:31;57150.39;;;-140.43;45.16
30714;BME280;17465;47.934;33.430;2023-05-09T02:33:05;57169.46;;;-140.43;45.02
30714;BME280;17465;47.934;33.430;2023-05-09T02:35:38;57142.98;;;-140.43;46.08
30714;BME280;17465;47.934;33.430;2023-05-09T02:38:11;57139.80;;;-140.43;44.98
30714;BME280;17465;47.934;33.430;2023-05-09T02:40:42;57139.80;;;-140.43;44.98
30714;BME280;17465;47.934;33.430;2023-05-09T02:43:14;57159.93;;;-140.43;46.42
30714;BME280;17465;47.934;33.430;2023-05-09T02:45:44;57149.34;;;-140.43;46.69
30714;BME280;17465;47.934;33.430;2023-05-09T02:48:15;57149.34;;;-140.43;46.69
30714;BME280;17465;47.934;33.430;2023-05-09T02:50:45;57129.21;;;-140.43;45.21
30714;BME280;17465;47.934;33.430;2023-05-09T02:53:16;57159.93;;;-140.43;45.13
30714;BME280;17465;47.934;33.430;2023-05-09T02:55:46;57158.87;;;-140.43;46.95
30714;BME280;17465;47.934;33.430;2023-05-09T02:58:16;57146.16;;;-140.43;48.73
30714;BME280;17465;47.934;33.430;2023-05-09T03:00:47;57148.28;;;-140.43;45.19
30714;BME280;17465;47.934;33.430;2023-05-09T03:03:19;57153.57;;;-140.43;44.45
30714;BME280;17465;47.934;33.430;2023-05-09T03:05:51;57156.75;;;-140.43;46.27
30714;BME280;17465;47.934;33.430;2023-05-09T03:08:22;57157.81;;;-140.43;45.18
30714;BME280;17465;47.934;33.430;2023-05-09T03:10:52;57153.57;;;-140.43;46.86
30714;BME280;17465;47.934;33.430;2023-05-09T03:13:23;57155.69;;;-140.43;46.17
30714;BME280;17465;47.934;33.430;2023-05-09T03:15:53;57140.86;;;-140.43;45.52
30714;BME280;17465;47.934;33.430;2023-05-09T03:18:24;57137.69;;;-140.43;46.60
30714;BME280;17465;47.934;33.430;2023-05-09T03:20:54;57153.57;;;-140.43;46.05
30714;BME280;17465;47.934;33.430;2023-05-09T03:23:25;57131.34;;;-140.43;46.43
30714;BME280;17465;47.934;33.430;2023-05-09T03:25:55;57131.34;;;-140.43;46.43
30714;BME280;17465;47.934;33.430;2023-05-09T03:28:26;57159.93;;;-140.43;45.46
30714;BME280;17465;47.934;33.430;2023-05-09T03:30:57;57149.34;;;-140.43;44.90
30714;BME280;17465;47.934;33.430;2023-05-09T03:33:27;57149.34;;;-140.43;44.90
30714;BME280;17465;47.934;33.430;2023-05-09T03:35:58;57144.04;;;-140.43;44.88
30714;BME280;17465;47.934;33.430;2023-05-09T03:38:28;57153.57;;;-140.43;44.59
30714;BME280;17465;47.934;33.430;2023-05-09T03:40:58;57158.87;;;-140.43;44.69
30714;BME280;17465;47.934;33.430;2023-05-09T03:43:29;57158.87;;;-140.43;44.69
30714;BME280;17465;47.934;33.430;2023-05-09T03:45:59;57164.16;;;-140.43;45.61
30714;BME280;17465;47.934;33.430;2023-05-09T03:48:30;57152.51;;;-140.43;45.39
30714;BME280;17465;47.934;33.430;2023-05-09T03:51:00;57168.40;;;-140.43;45.68
30714;BME280;17465;47.934;33.430;2023-05-09T03:53:31;57134.51;;;-140.43;43.74
30714;BME280;17465;47.934;33.430;2023-05-09T03:56:10;57149.34;;;-140.43;45.17
30714;BME280;17465;47.934;33.430;2023-05-09T03:58:41;57134.51;;;-140.43;45.36
30714;BME280;17465;47.934;33.430;2023-05-09T04:01:11;57178.99;;;-140.43;44.73
30714;BME280;17465;47.934;33.430;2023-05-09T04:03:42;57178.99;;;-140.43;44.73
30714;BME280;17465;47.934;33.430;2023-05-09T04:06:12;57128.16;;;-140.43;44.91
30714;BME280;17465;47.934;33.430;2023-05-09T04:08:43;57142.98;;;-140.43;46.37
30714;BME280;17465;47.934;33.430;2023-05-09T04:11:13;57142.98;;;-140.43;43.62
30714;BME280;17465;47.934;33.430;2023-05-09T04:13:44;57157.81;;;-140.43;44.67
30714;BME280;17465;47.934;33.430;2023-05-09T04:16:14;57147.22;;;-140.43;43.80
30714;BME280;17465;47.934;33.430;2023-05-09T04:18:44;57151.46;;;-140.43;45.87
30714;BME280;17465;47.934;33.430;2023-05-09T04:21:14;57140.86;;;-140.43;45.14
30714;BME280;17465;47.934;33.430;2023-05-09T04:23:45;57140.86;;;-140.43;45.14
30714;BME280;17465;47.934;33.430;2023-05-09T04:26:15;57146.16;;;-140.43;46.36
30714;BME280;17465;47.934;33.430;2023-05-09T04:28:46;57129.21;;;-140.43;45.62
30714;BME280;17465;47.934;33.430;2023-05-09T04:31:16;57139.80;;;-140.43;45.71
30714;BME280;17465;47.934;33.430;2023-05-09T04:33:46;57139.80;;;-140.43;45.71
30714;BME280;17465;47.934;33.430;2023-05-09T04:36:16;57166.28;;;-140.43;45.51
30714;BME280;17465;47.934;33.430;2023-05-09T04:38:47;57166.28;;;-140.43;45.51
30714;BME280;17465;47.934;33.430;2023-05-09T04:41:18;57147.22;;;-140.43;43.75
30714;BME280;17465;47.934;33.430;2023-05-09T04:43:48;57147.22;;;-140.43;43.48
30714;BME280;17465;47.934;33.430;2023-05-09T04:46:18;57148.28;;;-140.43;43.11
30714;BME280;17465;47.934;33.430;2023-05-09T04:48:48;57168.40;;;-140.43;42.52
30714;BME280;17465;47.934;33.430;2023-05-09T04:51:19;57149.34;;;-140.43;42.95
30714;BME280;17465;47.934;33.430;2023-05-09T04:53:49;57149.34;;;-140.43;42.95
30714;BME280;17465;47.934;33.430;2023-05-09T04:56:19;57157.81;;;-140.43;44.40
30714;BME280;17465;47.934;33.430;2023-05-09T04:58:50;57132.39;;;-140.43;44.90
30714;BME280;17465;47.934;33.430;2023-05-09T05:01:20;57147.22;;;-140.43;43.34
30714;BME280;17465;47.934;33.430;2023-05-09T05:03:50;57180.05;;;-140.43;42.63
30714;BME280;17465;47.934;33.430;2023-05-09T05:06:20;57141.92;;;-140.43;42.85
30714;BME280;17465;47.934;33.430;2023-05-09T05:08:51;57167.34;;;-140.43;43.63
30714;BME280;17465;47.934;33.430;2023-05-09T05:11:21;57150.39;;;-140.43;42.77
30714;BME280;17465;47.934;33.430;2023-05-09T05:13:51;57150.39;;;-140.43;42.77
30714;BME280;17465;47.934;33.430;2023-05-09T05:16:22;57160.98;;;-140.43;41.37
30714;BME280;17465;47.934;33.430;2023-05-09T05:18:52;57154.63;;;-140.43;41.10
30714;BME280;17465;47.934;33.430;2023-05-09T05:21:23;57168.40;;;-140.43;43.75
30714;BME280;17465;47.934;33.430;2023-05-09T05:23:53;57171.58;;;-140.43;42.24
30714;BME280;17465;47.934;33.430;2023-05-09T05:26:23;57151.46;;;-140.43;43.39
30714;BME280;17465;47.934;33.430;2023-05-09T05:28:53;57155.69;;;-140.43;46.29
30714;BME280;17465;47.934;33.430;2023-05-09T05:31:24;57132.39;;;-140.43;43.69
30714;BME280;17465;47.934;33.430;2023-05-09T05:33:55;57160.98;;;-140.43;42.49
30714;BME280;17465;47.934;33.430;2023-05-09T05:36:26;57123.92;;;-140.43;44.35
30714;BME280;17465;47.934;33.430;2023-05-09T05:38:58;57123.92;;;-140.43;44.35
30714;BME280;17465;47.934;33.430;2023-05-09T05:41:28;57165.22;;;-140.43;41.86
30714;BME280;17465;47.934;33.430;2023-05-09T05:43:59;57148.28;;;-140.43;43.48
30714;BME280;17465;47.934;33.430;2023-05-09T05:46:29;57154.63;;;-140.43;44.26
30714;BME280;17465;47.934;33.430;2023-05-09T05:48:59;57154.63;;;-140.43;44.26
30714;BME280;17465;47.934;33.430;2023-05-09T05:51:30;57152.51;;;-140.43;43.17
30714;BME280;17465;47.934;33.430;2023-05-09T05:54:01;57150.39;;;-140.43;43.06
30714;BME280;17465;47.934;33.430;2023-05-09T05:56:31;57150.39;;;-140.43;43.06
30714;BME280;17465;47.934;33.430;2023-05-09T05:59:02;57174.75;;;-140.43;43.28
30714;BME280;17465;47.934;33.430;2023-05-09T06:01:32;57165.22;;;-140.43;40.90
30714;BME280;17465;47.934;33.430;2023-05-09T06:04:03;57160.98;;;-140.43;41.88
30714;BME280;17465;47.934;33.430;2023-05-09T06:06:33;57146.16;;;-140.43;40.58
30714;BME280;17465;47.934;33.430;2023-05-09T06:09:04;57174.75;;;-140.43;40.55
30714;BME280;17465;47.934;33.430;2023-05-09T06:11:34;57157.81;;;-140.43;41.86
30714;BME280;17465;47.934;33.430;2023-05-09T06:14:05;57151.46;;;-140.43;42.43
30714;BME280;17465;47.934;33.430;2023-05-09T06:16:35;57163.10;;;-140.43;41.00
30714;BME280;17465;47.934;33.430;2023-05-09T06:19:06;57163.10;;;-140.43;40.55
30714;BME280;17465;47.934;33.430;2023-05-09T06:21:37;57163.10;;;-140.43;40.55
30714;BME280;17465;47.934;33.430;2023-05-09T06:24:07;57181.11;;;-140.43;40.78
30714;BME280;17465;47.934;33.430;2023-05-09T06:26:39;57172.63;;;-140.43;38.56
30714;BME280;17465;47.934;33.430;2023-05-09T06:29:10;57183.22;;;-140.43;37.97
30714;BME280;17465;47.934;33.430;2023-05-09T06:31:40;57177.93;;;-140.43;38.25
30714;BME280;17465;47.934;33.430;2023-05-09T06:34:11;57177.93;;;-140.43;38.25
30714;BME280;17465;47.934;33.430;2023-05-09T06:36:41;57159.93;;;-140.43;38.05
30714;BME280;17465;47.934;33.430;2023-05-09T06:39:11;57195.93;;;-140.43;38.09
30714;BME280;17465;47.934;33.430;2023-05-09T06:41:42;57199.11;;;-140.43;36.80
30714;BME280;17465;47.934;33.430;2023-05-09T06:44:16;57199.11;;;-140.43;36.80
30714;BME280;17465;47.934;33.430;2023-05-09T06:46:44;57199.11;;;-140.43;38.63
30714;BME280;17465;47.934;33.430;2023-05-09T06:49:17;57199.11;;;-140.43;38.63
30714;BME280;17465;47.934;33.430;2023-05-09T06:51:48;57219.23;;;-140.43;37.65
30714;BME280;17465;47.934;33.430;2023-05-09T06:54:18;57203.34;;;-140.43;36.75
30714;BME280;17465;47.934;33.430;2023-05-09T06:56:48;57187.46;;;-140.43;37.66
30714;BME280;17465;47.934;33.430;2023-05-09T06:59:24;57187.46;;;-140.43;37.66
30714;BME280;17465;47.934;33.430;2023-05-09T07:02:03;57221.35;;;-140.43;36.50
30714;BME280;17465;47.934;33.430;2023-05-09T07:04:33;57190.64;;;-140.43;36.33
30714;BME280;17465;47.934;33.430;2023-05-09T07:07:04;57186.40;;;-140.43;35.77
30714;BME280;17465;47.934;33.430;2023-05-09T07:09:34;57186.40;;;-140.43;35.77
30714;BME280;17465;47.934;33.430;2023-05-09T07:12:27;57194.88;;;-140.43;38.26
30714;BME280;17465;47.934;33.430;2023-05-09T07:15:01;57188.52;;;-140.43;38.95
30714;BME280;17465;47.934;33.430;2023-05-09T07:17:32;57174.75;;;-140.43;37.12
30714;BME280;17465;47.934;33.430;2023-05-09T07:20:12;57189.58;;;-140.43;38.18
30714;BME280;17465;47.934;33.430;2023-05-09T07:22:39;57189.58;;;-140.43;38.18
30714;BME280;17465;47.934;33.430;2023-05-09T07:25:10;57170.52;;;-140.43;36.34
30714;BME280;17465;47.934;33.430;2023-05-09T07:27:41;57190.64;;;-140.43;38.11
30714;BME280;17465;47.934;33.430;2023-05-09T07:30:12;57190.64;;;-140.43;38.11
30714;BME280;17465;47.934;33.430;2023-05-09T07:32:43;57189.58;;;-140.43;38.40
30714;BME280;17465;47.934;33.430;2023-05-09T07:35:13;57188.52;;;-140.43;39.71
30714;BME280;17465;47.934;33.430;2023-05-09T07:37:44;57195.93;;;-140.43;37.81
30714;BME280;17465;47.934;33.430;2023-05-09T07:40:19;57183.22;;;-140.43;37.28
30714;BME280;17465;47.934;33.430;2023-05-09T07:42:51;57186.40;;;-140.43;38.39
30714;BME280;17465;47.934;33.430;2023-05-09T07:45:21;57186.40;;;-140.43;38.39
30714;BME280;17465;47.934;33.430;2023-05-09T07:47:53;57172.63;;;-140.43;37.17
30714;BME280;17465;47.934;33.430;2023-05-09T07:50:25;57195.93;;;-140.43;36.74
30714;BME280;17465;47.934;33.430;2023-05-09T07:52:55;57195.93;;;-140.43;36.74
30714;BME280;17465;47.934;33.430;2023-05-09T07:55:25;57229.82;;;-140.43;37.62
30714;BME280;17465;47.934;33.430;2023-05-09T07:57:56;57229.82;;;-140.43;37.62
30714;BME280;17465;47.934;33.430;2023-05-09T08:00:26;57212.87;;;-140.43;36.57
30714;BME280;17465;47.934;33.430;2023-05-09T08:02:57;57212.87;;;-140.43;36.57
30714;BME280;17465;47.934;33.430;2023-05-09T08:05:33;57211.82;;;-140.43;35.57
30714;BME280;17465;47.934;33.430;2023-05-09T08:08:03;57229.82;;;-140.43;35.13
30714;BME280;17465;47.934;33.430;2023-05-09T08:10:35;57229.82;;;-140.43;35.13
30714;BME280;17465;47.934;33.430;2023-05-09T08:13:06;57246.77;;;-140.43;33.33
30714;BME280;17465;47.934;33.430;2023-05-09T08:15:40;57256.30;;;-140.43;33.31
30714;BME280;17465;47.934;33.430;2023-05-09T08:18:11;57276.42;;;-140.43;33.95
30714;BME280;17465;47.934;33.430;2023-05-09T08:21:02;57222.41;;;-140.43;35.29
30714;BME280;17465;47.934;33.430;2023-05-09T08:23:33;57245.71;;;-140.43;34.89
30714;BME280;17465;47.934;33.430;2023-05-09T08:26:05;57245.71;;;-140.43;34.89
30714;BME280;17465;47.934;33.430;2023-05-09T08:28:37;57262.65;;;-140.43;33.59
30714;BME280;17465;47.934;33.430;2023-05-09T08:31:13;57296.54;;;-140.43;33.02
30714;BME280;17465;47.934;33.430;2023-05-09T08:33:47;57296.54;;;-140.43;33.02
30714;BME280;17465;47.934;33.430;2023-05-09T08:36:23;57344.20;;;-140.43;32.04
30714;BME280;17465;47.934;33.430;2023-05-09T08:38:55;57375.97;;;-140.43;28.85
30714;BME280;17465;47.934;33.430;2023-05-09T08:41:26;57334.67;;;-140.43;30.82
30714;BME280;17465;47.934;33.430;2023-05-09T08:44:02;57419.39;;;-140.43;29.65
30714;BME280;17465;47.934;33.430;2023-05-09T08:46:37;57379.15;;;-140.43;29.66
30714;BME280;17465;47.934;33.430;2023-05-09T08:49:18;57337.84;;;-140.43;29.65
30714;BME280;17465;47.934;33.430;2023-05-09T08:51:44;57403.51;;;-140.43;28.73
30714;BME280;17465;47.934;33.430;2023-05-09T08:54:24;57453.28;;;-140.43;28.63
30714;BME280;17465;47.934;33.430;2023-05-09T08:57:00;57440.57;;;-140.43;28.98
30714;BME280;17465;47.934;33.430;2023-05-09T08:59:58;57489.29;;;-140.43;26.86
30714;BME280;17465;47.934;33.430;2023-05-09T09:02:11;57422.57;;;-140.43;28.21
30714;BME280;17465;47.934;33.430;2023-05-09T09:04:46;57389.74;;;-140.43;29.38
30714;BME280;17465;47.934;33.430;2023-05-09T09:07:17;57382.32;;;-140.43;29.55
30714;BME280;17465;47.934;33.430;2023-05-09T09:09:51;57382.32;;;-140.43;29.55
30714;BME280;17465;47.934;33.430;2023-05-09T09:12:24;57467.05;;;-140.43;28.01
30714;BME280;17465;47.934;33.430;2023-05-09T09:15:03;57393.98;;;-140.43;30.72
30714;BME280;17465;47.934;33.430;2023-05-09T09:20:27;57332.55;;;-140.43;30.40
30714;BME280;17465;47.934;33.430;2023-05-09T09:23:03;57332.55;;;-140.43;30.40
30714;BME280;17465;47.934;33.430;2023-05-09T09:25:33;57307.13;;;-140.43;31.98
30714;BME280;17465;47.934;33.430;2023-05-09T09:28:09;57314.55;;;-140.43;34.27
30714;BME280;17465;47.934;33.430;2023-05-09T09:30:55;57291.25;;;-140.43;34.32
30714;BME280;17465;47.934;33.430;2023-05-09T09:33:29;57293.36;;;-140.43;34.27
30714;BME280;17465;47.934;33.430;2023-05-09T09:35:58;57293.36;;;-140.43;34.27
30714;BME280;17465;47.934;33.430;2023-05-09T09:38:28;57254.18;;;-140.43;34.35
30714;BME280;17465;47.934;33.430;2023-05-09T09:41:00;57270.06;;;-140.43;34.84
30714;BME280;17465;47.934;33.430;2023-05-09T09:43:32;57247.82;;;-140.43;34.95
30714;BME280;17465;47.934;33.430;2023-05-09T09:46:03;57247.82;;;-140.43;34.95
30714;BME280;17465;47.934;33.430;2023-05-09T09:48:35;57244.65;;;-140.43;34.94
30714;BME280;17465;47.934;33.430;2023-05-09T09:51:09;57244.65;;;-140.43;34.94
30714;BME280;17465;47.934;33.430;2023-05-09T09:53:46;57276.42;;;-140.43;33.34
30714;BME280;17465;47.934;33.430;2023-05-09T09:56:17;57276.42;;;-140.43;33.34
30714;BME280;17465;47.934;33.430;2023-05-09T09:58:47;57270.06;;;-140.43;32.03
30714;BME280;17465;47.934;33.430;2023-05-09T10:01:18;57270.06;;;-140.43;32.03
30714;BME280;17465;47.934;33.430;2023-05-09T10:03:48;57337.84;;;-140.43;30.36
30714;BME280;17465;47.934;33.430;2023-05-09T10:06:20;57363.26;;;-140.43;28.98
30714;BME280;17465;47.934;33.430;2023-05-09T10:08:50;57388.68;;;-140.43;29.59
30714;BME280;17465;47.934;33.430;2023-05-09T10:11:21;57363.26;;;-140.43;30.54
30714;BME280;17465;47.934;33.430;2023-05-09T10:13:58;57363.26;;;-140.43;30.54
30714;BME280;17465;47.934;33.430;2023-05-09T10:16:24;57339.96;;;-140.43;31.09
30714;BME280;17465;47.934;33.430;2023-05-09T10:18:57;57305.01;;;-140.43;34.04
30714;BME280;17465;47.934;33.430;2023-05-09T10:21:28;57305.01;;;-140.43;34.04
30714;BME280;17465;47.934;33.430;2023-05-09T10:24:00;57291.25;;;-140.43;33.65
30714;BME280;17465;47.934;33.430;2023-05-09T10:26:34;57248.88;;;-140.43;33.54
30714;BME280;17465;47.934;33.430;2023-05-09T10:29:07;57248.88;;;-140.43;33.54
30714;BME280;17465;47.934;33.430;2023-05-09T10:31:43;57249.95;;;-140.43;34.95
30714;BME280;17465;47.934;33.430;2023-05-09T10:34:17;57253.12;;;-140.43;33.84
30714;BME280;17465;47.934;33.430;2023-05-09T10:36:49;57257.36;;;-140.43;33.72
30714;BME280;17465;47.934;33.430;2023-05-09T10:39:20;57253.12;;;-140.43;34.29
30714;BME280;17465;47.934;33.430;2023-05-09T10:41:54;57260.54;;;-140.43;35.49
30714;BME280;17465;47.934;33.430;2023-05-09T10:44:26;57222.41;;;-140.43;35.06
30714;BME280;17465;47.934;33.430;2023-05-09T10:47:08;57228.76;;;-140.43;35.72
30714;BME280;17465;47.934;33.430;2023-05-09T10:49:40;57228.76;;;-140.43;35.72
30714;BME280;17465;47.934;33.430;2023-05-09T10:52:14;57253.12;;;-140.43;34.00
30714;BME280;17465;47.934;33.430;2023-05-09T10:57:38;57274.30;;;-140.43;33.65
30714;BME280;17465;47.934;33.430;2023-05-09T11:00:09;57274.30;;;-140.43;33.65
30714;BME280;17465;47.934;33.430;2023-05-09T11:03:04;57261.59;;;-140.43;33.91
30714;BME280;17465;47.934;33.430;2023-05-09T11:05:19;57238.29;;;-140.43;34.58
30714;BME280;17465;47.934;33.430;2023-05-09T11:08:16;57238.29;;;-140.43;34.58
30714;BME280;17465;47.934;33.430;2023-05-09T11:10:23;57237.23;;;-140.43;34.43
30714;BME280;17465;47.934;33.430;2023-05-09T11:12:55;57237.23;;;-140.43;33.23
30714;BME280;17465;47.934;33.430;2023-05-09T11:15:28;57249.95;;;-140.43;34.54
30714;BME280;17465;47.934;33.430;2023-05-09T11:18:11;57253.12;;;-140.43;34.40
30714;BME280;17465;47.934;33.430;2023-05-09T11:20:47;57257.36;;;-140.43;34.61
30714;BME280;17465;47.934;33.430;2023-05-09T11:23:28;57257.36;;;-140.43;34.61
30714;BME280;17465;47.934;33.430;2023-05-09T11:26:08;57213.94;;;-140.43;33.65
30714;BME280;17465;47.934;33.430;2023-05-09T11:28:50;57217.11;;;-140.43;33.77
30714;BME280;17465;47.934;33.430;2023-05-09T11:31:17;57239.35;;;-140.43;32.49
30714;BME280;17465;47.934;33.430;2023-05-09T11:33:49;57239.35;;;-140.43;32.49
30714;BME280;17465;47.934;33.430;2023-05-09T11:36:28;57244.65;;;-140.43;32.80
30714;BME280;17465;47.934;33.430;2023-05-09T11:39:09;57222.41;;;-140.43;33.84
30714;BME280;17465;47.934;33.430;2023-05-09T11:41:46;57254.18;;;-140.43;34.31
30714;BME280;17465;47.934;33.430;2023-05-09T11:44:20;57235.12;;;-140.43;36.12
30714;BME280;17465;47.934;33.430;2023-05-09T11:46:52;57226.64;;;-140.43;34.00
30714;BME280;17465;47.934;33.430;2023-05-09T11:49:23;57241.47;;;-140.43;33.89
30714;BME280;17465;47.934;33.430;2023-05-09T11:52:00;57270.06;;;-140.43;34.26
30714;BME280;17465;47.934;33.430;2023-05-09T11:54:32;57239.35;;;-140.43;33.44
30714;BME280;17465;47.934;33.430;2023-05-09T11:57:05;57242.53;;;-140.43;33.82
30714;BME280;17465;47.934;33.430;2023-05-09T11:59:38;57242.53;;;-140.43;33.82
30714;BME280;17465;47.934;33.430;2023-05-09T12:02:09;57229.82;;;-140.43;32.26
30714;BME280;17465;47.934;33.430;2023-05-09T12:04:44;57249.95;;;-140.43;33.14
30714;BME280;17465;47.934;33.430;2023-05-09T12:07:16;57235.12;;;-140.43;32.42
30714;BME280;17465;47.934;33.430;2023-05-09T12:09:51;57233.00;;;-140.43;32.42
30714;BME280;17465;47.934;33.430;2023-05-09T12:12:25;57275.36;;;-140.43;31.91
30714;BME280;17465;47.934;33.430;2023-05-09T12:15:05;57249.95;;;-140.43;31.87
30714;BME280;17465;47.934;33.430;2023-05-09T12:17:41;57233.00;;;-140.43;32.47
30714;BME280;17465;47.934;33.430;2023-05-09T12:20:27;57233.00;;;-140.43;32.47
30714;BME280;17465;47.934;33.430;2023-05-09T12:22:53;57242.53;;;-140.43;34.23
30714;BME280;17465;47.934;33.430;2023-05-09T12:25:24;57242.53;;;-140.43;34.23
30714;BME280;17465;47.934;33.430;2023-05-09T12:27:55;57254.18;;;-140.43;33.90
30714;BME280;17465;47.934;33.430;2023-05-09T12:30:29;57237.23;;;-140.43;33.05
30714;BME280;17465;47.934;33.430;2023-05-09T12:33:01;57237.23;;;-140.43;33.05
30714;BME280;17465;47.934;33.430;2023-05-09T12:35:38;57261.59;;;-140.43;33.19
30714;BME280;17465;47.934;33.430;2023-05-09T12:38:14;57246.77;;;-140.43;32.68
30714;BME280;17465;47.934;33.430;2023-05-09T12:41:05;57277.48;;;-140.43;33.49
30714;BME280;17465;47.934;33.430;2023-05-09T12:43:21;57249.95;;;-140.43;33.23
30714;BME280;17465;47.934;33.430;2023-05-09T12:45:52;57249.95;;;-140.43;33.23
30714;BME280;17465;47.934;33.430;2023-05-09T12:48:24;57247.82;;;-140.43;32.90
30714;BME280;17465;47.934;33.430;2023-05-09T12:50:54;57247.82;;;-140.43;32.90
30714;BME280;17465;47.934;33.430;2023-05-09T12:53:28;57289.13;;;-140.43;32.44
30714;BME280;17465;47.934;33.430;2023-05-09T12:56:03;57289.13;;;-140.43;32.44
30714;BME280;17465;47.934;33.430;2023-05-09T12:58:34;57305.01;;;-140.43;31.56
30714;BME280;17465;47.934;33.430;2023-05-09T13:01:04;57336.79;;;-140.43;29.82
30714;BME280;17465;47.934;33.430;2023-05-09T13:03:38;57341.02;;;-140.43;29.79
30714;BME280;17465;47.934;33.430;2023-05-09T13:06:11;57341.02;;;-140.43;29.79
30714;BME280;17465;47.934;33.430;2023-05-09T13:08:43;57350.55;;;-140.43;30.14
30714;BME280;17465;47.934;33.430;2023-05-09T13:11:13;57311.37;;;-140.43;31.57
30714;BME280;17465;47.934;33.430;2023-05-09T13:13:45;57254.18;;;-140.43;31.82